sensor_id;sensor_type;location;lat;lon;timestamp;P1;durP1;ratioP1;P2;durP2;ratioP2
56860;SDS011;42744;51.094;3.490;2022-08-19T00:01:09;50.97;;;46.47;;
56860;SDS011;42744;51.094;3.490;2022-08-19T00:03:35;51.53;;;47.13;;
56860;SDS011;42744;51.094;3.490;2022-08-19T00:06:01;54.10;;;49.67;;
56860;SDS011;42744;51.094;3.490;2022-08-19T00:08:28;52.40;;;47.90;;
56860;SDS011;42744;51.094;3.490;2022-08-19T00:10:54;51.53;;;47.07;;
56860;SDS011;42744;51.094;3.490;2022-08-19T00:13:20;53.27;;;48.90;;
56860;SDS011;42744;51.094;3.490;2022-08-19T00:15:46;52.07;;;47.37;;
56860;SDS011;42744;51.094;3.490;2022-08-19T00:18:12;52.40;;;47.97;;
56860;SDS011;42744;51.094;3.490;2022-08-19T00:20:38;50.10;;;45.80;;
56860;SDS011;42744;51.094;3.490;2022-08-19T00:23:06;50.40;;;45.90;;
56860;SDS011;42744;51.094;3.490;2022-08-19T00:25:32;52.77;;;48.13;;
56860;SDS011;42744;51.094;3.490;2022-08-19T00:27:58;50.40;;;45.87;;
56860;SDS011;42744;51.094;3.490;2022-08-19T00:30:25;51.50;;;47.20;;
56860;SDS011;42744;51.094;3.490;2022-08-19T00:32:53;53.60;;;48.73;;
56860;SDS011;42744;51.094;3.490;2022-08-19T00:35:21;52.93;;;48.33;;
56860;SDS011;42744;51.094;3.490;2022-08-19T00:37:48;50.23;;;45.77;;
56860;SDS011;42744;51.094;3.490;2022-08-19T00:40:16;53.17;;;48.67;;
56860;SDS011;42744;51.094;3.490;2022-08-19T00:42:43;51.47;;;46.87;;
56860;SDS011;42744;51.094;3.490;2022-08-19T00:45:20;51.47;;;46.77;;
56860;SDS011;42744;51.094;3.490;2022-08-19T00:47:48;49.20;;;44.83;;
56860;SDS011;42744;51.094;3.490;2022-08-19T00:50:15;50.07;;;45.67;;
56860;SDS011;42744;51.094;3.490;2022-08-19T00:52:44;49.57;;;45.33;;
56860;SDS011;42744;51.094;3.490;2022-08-19T00:55:15;49.10;;;45.03;;
56860;SDS011;42744;51.094;3.490;2022-08-19T00:57:51;49.83;;;44.90;;
56860;SDS011;42744;51.094;3.490;2022-08-19T01:00:23;52.97;;;47.80;;
56860;SDS011;42744;51.094;3.490;2022-08-19T01:02:50;49.90;;;45.50;;
56860;SDS011;42744;51.094;3.490;2022-08-19T01:05:18;53.33;;;48.73;;
56860;SDS011;42744;51.094;3.490;2022-08-19T01:07:47;52.10;;;47.47;;
56860;SDS011;42744;51.094;3.490;2022-08-19T01:10:16;51.60;;;47.00;;
56860;SDS011;42744;51.094;3.490;2022-08-19T01:12:45;49.37;;;45.13;;
56860;SDS011;42744;51.094;3.490;2022-08-19T01:15:14;49.83;;;45.67;;
56860;SDS011;42744;51.094;3.490;2022-08-19T01:17:42;49.57;;;45.27;;
56860;SDS011;42744;51.094;3.490;2022-08-19T01:20:10;52.83;;;48.40;;
56860;SDS011;42744;51.094;3.490;2022-08-19T01:22:43;50.43;;;46.10;;
56860;SDS011;42744;51.094;3.490;2022-08-19T01:25:13;52.07;;;47.73;;
56860;SDS011;42744;51.094;3.490;2022-08-19T01:27:42;50.27;;;45.70;;
56860;SDS011;42744;51.094;3.490;2022-08-19T01:30:12;51.67;;;47.00;;
56860;SDS011;42744;51.094;3.490;2022-08-19T01:32:40;51.23;;;46.63;;
56860;SDS011;42744;51.094;3.490;2022-08-19T01:35:07;52.83;;;48.17;;
56860;SDS011;42744;51.094;3.490;2022-08-19T01:40:24;53.17;;;48.33;;
56860;SDS011;42744;51.094;3.490;2022-08-19T01:42:52;54.30;;;49.30;;
56860;SDS011;42744;51.094;3.490;2022-08-19T01:45:20;52.70;;;47.83;;
56860;SDS011;42744;51.094;3.490;2022-08-19T01:47:48;51.17;;;46.87;;
56860;SDS011;42744;51.094;3.490;2022-08-19T01:50:14;51.43;;;46.63;;
56860;SDS011;42744;51.094;3.490;2022-08-19T01:52:40;53.07;;;47.83;;
56860;SDS011;42744;51.094;3.490;2022-08-19T01:55:10;54.03;;;49.10;;
56860;SDS011;42744;51.094;3.490;2022-08-19T01:57:40;53.80;;;48.53;;
56860;SDS011;42744;51.094;3.490;2022-08-19T02:00:09;51.97;;;47.03;;
56860;SDS011;42744;51.094;3.490;2022-08-19T02:02:37;52.40;;;47.73;;
56860;SDS011;42744;51.094;3.490;2022-08-19T02:05:04;52.83;;;47.63;;
56860;SDS011;42744;51.094;3.490;2022-08-19T02:07:32;53.23;;;48.27;;
56860;SDS011;42744;51.094;3.490;2022-08-19T02:09:58;51.93;;;47.13;;
56860;SDS011;42744;51.094;3.490;2022-08-19T02:12:26;53.53;;;48.33;;
56860;SDS011;42744;51.094;3.490;2022-08-19T02:14:52;55.10;;;49.70;;
56860;SDS011;42744;51.094;3.490;2022-08-19T02:17:18;53.37;;;48.57;;
56860;SDS011;42744;51.094;3.490;2022-08-19T02:19:44;55.37;;;50.27;;
56860;SDS011;42744;51.094;3.490;2022-08-19T02:22:10;54.73;;;49.67;;
56860;SDS011;42744;51.094;3.490;2022-08-19T02:24:36;55.40;;;50.27;;
56860;SDS011;42744;51.094;3.490;2022-08-19T02:27:02;51.53;;;46.63;;
56860;SDS011;42744;51.094;3.490;2022-08-19T02:29:28;55.50;;;50.37;;
56860;SDS011;42744;51.094;3.490;2022-08-19T02:31:54;53.40;;;48.43;;
56860;SDS011;42744;51.094;3.490;2022-08-19T02:34:20;54.83;;;49.33;;
56860;SDS011;42744;51.094;3.490;2022-08-19T02:36:46;54.00;;;49.23;;
56860;SDS011;42744;51.094;3.490;2022-08-19T02:39:12;53.80;;;48.60;;
56860;SDS011;42744;51.094;3.490;2022-08-19T02:41:38;54.33;;;49.20;;
56860;SDS011;42744;51.094;3.490;2022-08-19T02:44:05;54.20;;;49.43;;
56860;SDS011;42744;51.094;3.490;2022-08-19T02:46:32;52.83;;;48.03;;
56860;SDS011;42744;51.094;3.490;2022-08-19T02:49:05;51.63;;;46.80;;
56860;SDS011;42744;51.094;3.490;2022-08-19T02:51:34;53.80;;;48.53;;
56860;SDS011;42744;51.094;3.490;2022-08-19T02:54:02;52.77;;;47.93;;
56860;SDS011;42744;51.094;3.490;2022-08-19T02:56:29;50.23;;;45.63;;
56860;SDS011;42744;51.094;3.490;2022-08-19T02:58:56;51.57;;;46.87;;
56860;SDS011;42744;51.094;3.490;2022-08-19T03:01:25;50.70;;;46.27;;
56860;SDS011;42744;51.094;3.490;2022-08-19T03:03:52;50.40;;;45.57;;
56860;SDS011;42744;51.094;3.490;2022-08-19T03:06:19;51.87;;;46.47;;
56860;SDS011;42744;51.094;3.490;2022-08-19T03:08:46;48.37;;;44.00;;
56860;SDS011;42744;51.094;3.490;2022-08-19T03:11:19;51.63;;;47.13;;
56860;SDS011;42744;51.094;3.490;2022-08-19T03:13:49;51.03;;;46.23;;
56860;SDS011;42744;51.094;3.490;2022-08-19T03:16:16;52.70;;;47.97;;
56860;SDS011;42744;51.094;3.490;2022-08-19T03:18:46;49.33;;;44.93;;
56860;SDS011;42744;51.094;3.490;2022-08-19T03:21:19;48.97;;;44.57;;
56860;SDS011;42744;51.094;3.490;2022-08-19T03:23:47;48.47;;;44.13;;
56860;SDS011;42744;51.094;3.490;2022-08-19T03:26:13;48.97;;;45.00;;
56860;SDS011;42744;51.094;3.490;2022-08-19T03:28:43;47.97;;;43.77;;
56860;SDS011;42744;51.094;3.490;2022-08-19T03:31:11;49.23;;;45.00;;
56860;SDS011;42744;51.094;3.490;2022-08-19T03:33:39;48.40;;;44.07;;
56860;SDS011;42744;51.094;3.490;2022-08-19T03:36:10;47.37;;;43.20;;
56860;SDS011;42744;51.094;3.490;2022-08-19T03:38:40;46.63;;;42.53;;
56860;SDS011;42744;51.094;3.490;2022-08-19T03:41:12;46.80;;;42.93;;
56860;SDS011;42744;51.094;3.490;2022-08-19T03:43:49;47.17;;;42.90;;
56860;SDS011;42744;51.094;3.490;2022-08-19T03:46:26;46.30;;;42.03;;
56860;SDS011;42744;51.094;3.490;2022-08-19T03:48:54;46.17;;;42.20;;
56860;SDS011;42744;51.094;3.490;2022-08-19T03:51:24;45.43;;;41.73;;
56860;SDS011;42744;51.094;3.490;2022-08-19T03:54:00;46.30;;;42.27;;
56860;SDS011;42744;51.094;3.490;2022-08-19T03:56:28;46.10;;;42.13;;
56860;SDS011;42744;51.094;3.490;2022-08-19T03:58:56;44.03;;;40.27;;
56860;SDS011;42744;51.094;3.490;2022-08-19T04:01:24;45.30;;;41.53;;
56860;SDS011;42744;51.094;3.490;2022-08-19T04:03:52;44.93;;;41.03;;
56860;SDS011;42744;51.094;3.490;2022-08-19T04:06:23;42.73;;;39.23;;
56860;SDS011;42744;51.094;3.490;2022-08-19T04:08:54;45.80;;;41.50;;
56860;SDS011;42744;51.094;3.490;2022-08-19T04:11:23;44.73;;;40.70;;
56860;SDS011;42744;51.094;3.490;2022-08-19T04:13:54;45.43;;;41.43;;
56860;SDS011;42744;51.094;3.490;2022-08-19T04:16:21;47.20;;;43.13;;
56860;SDS011;42744;51.094;3.490;2022-08-19T04:18:48;47.27;;;43.27;;
56860;SDS011;42744;51.094;3.490;2022-08-19T04:21:20;45.90;;;41.80;;
56860;SDS011;42744;51.094;3.490;2022-08-19T04:23:47;47.53;;;43.10;;
56860;SDS011;42744;51.094;3.490;2022-08-19T04:26:14;48.30;;;44.27;;
56860;SDS011;42744;51.094;3.490;2022-08-19T04:28:44;45.67;;;41.70;;
56860;SDS011;42744;51.094;3.490;2022-08-19T04:31:18;48.10;;;43.70;;
56860;SDS011;42744;51.094;3.490;2022-08-19T04:33:45;46.73;;;42.80;;
56860;SDS011;42744;51.094;3.490;2022-08-19T04:36:15;47.80;;;42.90;;
56860;SDS011;42744;51.094;3.490;2022-08-19T04:38:46;44.27;;;40.17;;
56860;SDS011;42744;51.094;3.490;2022-08-19T04:41:13;45.57;;;41.53;;
56860;SDS011;42744;51.094;3.490;2022-08-19T04:43:58;44.33;;;40.33;;
56860;SDS011;42744;51.094;3.490;2022-08-19T04:46:24;45.23;;;41.23;;
56860;SDS011;42744;51.094;3.490;2022-08-19T04:48:50;46.50;;;42.50;;
56860;SDS011;42744;51.094;3.490;2022-08-19T04:51:18;44.90;;;40.73;;
56860;SDS011;42744;51.094;3.490;2022-08-19T04:53:45;46.03;;;42.17;;
56860;SDS011;42744;51.094;3.490;2022-08-19T04:56:13;43.70;;;40.00;;
56860;SDS011;42744;51.094;3.490;2022-08-19T04:58:42;43.63;;;39.43;;
56860;SDS011;42744;51.094;3.490;2022-08-19T05:01:11;45.63;;;41.67;;
56860;SDS011;42744;51.094;3.490;2022-08-19T05:03:39;43.10;;;39.50;;
56860;SDS011;42744;51.094;3.490;2022-08-19T05:06:06;46.10;;;42.27;;
56860;SDS011;42744;51.094;3.490;2022-08-19T05:08:36;47.07;;;42.37;;
56860;SDS011;42744;51.094;3.490;2022-08-19T05:11:13;44.80;;;41.10;;
56860;SDS011;42744;51.094;3.490;2022-08-19T05:13:42;44.57;;;40.57;;
56860;SDS011;42744;51.094;3.490;2022-08-19T05:16:10;42.77;;;39.17;;
56860;SDS011;42744;51.094;3.490;2022-08-19T05:18:37;42.73;;;39.20;;
56860;SDS011;42744;51.094;3.490;2022-08-19T05:21:24;44.93;;;40.80;;
56860;SDS011;42744;51.094;3.490;2022-08-19T05:24:10;45.33;;;40.97;;
56860;SDS011;42744;51.094;3.490;2022-08-19T05:26:37;45.50;;;41.73;;
56860;SDS011;42744;51.094;3.490;2022-08-19T05:29:05;43.17;;;39.43;;
56860;SDS011;42744;51.094;3.490;2022-08-19T05:31:33;42.17;;;38.70;;
56860;SDS011;42744;51.094;3.490;2022-08-19T05:34:01;42.93;;;39.07;;
56860;SDS011;42744;51.094;3.490;2022-08-19T05:36:29;43.67;;;39.80;;
56860;SDS011;42744;51.094;3.490;2022-08-19T05:39:02;45.10;;;40.97;;
56860;SDS011;42744;51.094;3.490;2022-08-19T05:41:29;43.73;;;40.23;;
56860;SDS011;42744;51.094;3.490;2022-08-19T05:43:56;45.37;;;41.23;;
56860;SDS011;42744;51.094;3.490;2022-08-19T05:46:22;43.10;;;39.27;;
56860;SDS011;42744;51.094;3.490;2022-08-19T05:48:49;44.57;;;40.93;;
56860;SDS011;42744;51.094;3.490;2022-08-19T05:51:15;43.17;;;39.73;;
56860;SDS011;42744;51.094;3.490;2022-08-19T05:53:42;44.40;;;40.53;;
56860;SDS011;42744;51.094;3.490;2022-08-19T05:56:14;43.70;;;39.47;;
56860;SDS011;42744;51.094;3.490;2022-08-19T05:58:42;44.97;;;40.50;;
56860;SDS011;42744;51.094;3.490;2022-08-19T06:01:16;43.63;;;40.13;;
56860;SDS011;42744;51.094;3.490;2022-08-19T06:03:43;46.57;;;42.17;;
56860;SDS011;42744;51.094;3.490;2022-08-19T06:06:10;42.57;;;38.80;;
56860;SDS011;42744;51.094;3.490;2022-08-19T06:08:37;43.73;;;40.17;;
56860;SDS011;42744;51.094;3.490;2022-08-19T06:13:39;41.73;;;38.10;;
56860;SDS011;42744;51.094;3.490;2022-08-19T06:16:05;41.50;;;38.20;;
56860;SDS011;42744;51.094;3.490;2022-08-19T06:18:31;46.20;;;42.27;;
56860;SDS011;42744;51.094;3.490;2022-08-19T06:20:58;42.40;;;38.93;;
56860;SDS011;42744;51.094;3.490;2022-08-19T06:23:24;44.17;;;40.67;;
56860;SDS011;42744;51.094;3.490;2022-08-19T06:25:50;42.30;;;37.83;;
56860;SDS011;42744;51.094;3.490;2022-08-19T06:28:16;41.87;;;38.23;;
56860;SDS011;42744;51.094;3.490;2022-08-19T06:30:42;43.47;;;39.83;;
56860;SDS011;42744;51.094;3.490;2022-08-19T06:33:09;45.23;;;40.53;;
56860;SDS011;42744;51.094;3.490;2022-08-19T06:35:38;43.10;;;39.73;;
56860;SDS011;42744;51.094;3.490;2022-08-19T06:38:05;41.80;;;38.13;;
56860;SDS011;42744;51.094;3.490;2022-08-19T06:40:31;41.80;;;38.37;;
56860;SDS011;42744;51.094;3.490;2022-08-19T06:42:57;40.33;;;37.10;;
56860;SDS011;42744;51.094;3.490;2022-08-19T06:45:25;45.33;;;41.67;;
56860;SDS011;42744;51.094;3.490;2022-08-19T06:47:52;40.10;;;36.97;;
56860;SDS011;42744;51.094;3.490;2022-08-19T06:50:24;42.37;;;39.07;;
56860;SDS011;42744;51.094;3.490;2022-08-19T06:52:50;41.10;;;37.93;;
56860;SDS011;42744;51.094;3.490;2022-08-19T06:55:16;40.77;;;37.57;;
56860;SDS011;42744;51.094;3.490;2022-08-19T06:57:42;41.27;;;38.13;;
56860;SDS011;42744;51.094;3.490;2022-08-19T07:00:11;41.47;;;38.27;;
56860;SDS011;42744;51.094;3.490;2022-08-19T07:02:44;42.70;;;39.43;;
56860;SDS011;42744;51.094;3.490;2022-08-19T07:05:10;40.40;;;37.20;;
56860;SDS011;42744;51.094;3.490;2022-08-19T07:07:36;40.97;;;37.97;;
56860;SDS011;42744;51.094;3.490;2022-08-19T07:10:03;39.03;;;36.03;;
56860;SDS011;42744;51.094;3.490;2022-08-19T07:12:31;38.43;;;35.47;;
56860;SDS011;42744;51.094;3.490;2022-08-19T07:15:00;39.87;;;36.77;;
56860;SDS011;42744;51.094;3.490;2022-08-19T07:17:27;40.13;;;37.03;;
56860;SDS011;42744;51.094;3.490;2022-08-19T07:19:53;38.67;;;35.47;;
56860;SDS011;42744;51.094;3.490;2022-08-19T07:22:21;36.77;;;33.83;;
56860;SDS011;42744;51.094;3.490;2022-08-19T07:24:47;37.30;;;34.33;;
56860;SDS011;42744;51.094;3.490;2022-08-19T07:27:14;38.77;;;35.57;;
56860;SDS011;42744;51.094;3.490;2022-08-19T07:29:40;37.17;;;34.40;;
56860;SDS011;42744;51.094;3.490;2022-08-19T07:32:06;37.63;;;34.50;;
56860;SDS011;42744;51.094;3.490;2022-08-19T07:34:34;38.03;;;35.13;;
56860;SDS011;42744;51.094;3.490;2022-08-19T07:37:03;36.43;;;33.37;;
56860;SDS011;42744;51.094;3.490;2022-08-19T07:39:32;36.50;;;34.07;;
56860;SDS011;42744;51.094;3.490;2022-08-19T07:42:00;37.20;;;34.33;;
56860;SDS011;42744;51.094;3.490;2022-08-19T07:44:28;36.13;;;33.73;;
56860;SDS011;42744;51.094;3.490;2022-08-19T07:46:54;36.30;;;33.87;;
56860;SDS011;42744;51.094;3.490;2022-08-19T07:49:22;34.57;;;32.33;;
56860;SDS011;42744;51.094;3.490;2022-08-19T07:51:50;34.77;;;32.57;;
56860;SDS011;42744;51.094;3.490;2022-08-19T07:54:17;34.47;;;32.23;;
56860;SDS011;42744;51.094;3.490;2022-08-19T07:56:44;34.90;;;32.60;;
56860;SDS011;42744;51.094;3.490;2022-08-19T07:59:11;35.97;;;33.53;;
56860;SDS011;42744;51.094;3.490;2022-08-19T08:01:38;32.87;;;30.83;;
56860;SDS011;42744;51.094;3.490;2022-08-19T08:04:05;35.20;;;32.77;;
56860;SDS011;42744;51.094;3.490;2022-08-19T08:07:02;33.70;;;31.40;;
56860;SDS011;42744;51.094;3.490;2022-08-19T08:09:48;34.93;;;32.77;;
56860;SDS011;42744;51.094;3.490;2022-08-19T08:12:18;35.37;;;33.07;;
56860;SDS011;42744;51.094;3.490;2022-08-19T08:14:51;36.17;;;33.97;;
56860;SDS011;42744;51.094;3.490;2022-08-19T08:17:20;34.60;;;32.40;;
56860;SDS011;42744;51.094;3.490;2022-08-19T08:19:48;34.27;;;32.37;;
56860;SDS011;42744;51.094;3.490;2022-08-19T08:22:17;33.70;;;31.80;;
56860;SDS011;42744;51.094;3.490;2022-08-19T08:25:04;33.83;;;31.63;;
56860;SDS011;42744;51.094;3.490;2022-08-19T08:27:37;34.57;;;32.40;;
56860;SDS011;42744;51.094;3.490;2022-08-19T08:30:08;32.67;;;30.77;;
56860;SDS011;42744;51.094;3.490;2022-08-19T08:32:36;33.70;;;31.80;;
56860;SDS011;42744;51.094;3.490;2022-08-19T08:35:07;34.20;;;32.20;;
56860;SDS011;42744;51.094;3.490;2022-08-19T08:37:34;32.87;;;30.97;;
56860;SDS011;42744;51.094;3.490;2022-08-19T08:40:05;34.93;;;33.03;;
56860;SDS011;42744;51.094;3.490;2022-08-19T08:42:40;34.33;;;32.27;;
56860;SDS011;42744;51.094;3.490;2022-08-19T08:45:17;33.10;;;31.30;;
56860;SDS011;42744;51.094;3.490;2022-08-19T08:47:48;32.60;;;30.80;;
56860;SDS011;42744;51.094;3.490;2022-08-19T08:52:46;34.87;;;33.07;;
56860;SDS011;42744;51.094;3.490;2022-08-19T08:55:20;34.10;;;32.27;;
56860;SDS011;42744;51.094;3.490;2022-08-19T09:02:52;34.27;;;32.27;;
56860;SDS011;42744;51.094;3.490;2022-08-19T09:05:19;33.87;;;32.07;;
56860;SDS011;42744;51.094;3.490;2022-08-19T09:10:21;35.03;;;32.87;;
56860;SDS011;42744;51.094;3.490;2022-08-19T09:13:29;35.67;;;33.77;;
56860;SDS011;42744;51.094;3.490;2022-08-19T09:18:57;35.83;;;33.77;;
56860;SDS011;42744;51.094;3.490;2022-08-19T09:21:27;36.03;;;33.93;;
56860;SDS011;42744;51.094;3.490;2022-08-19T09:23:53;35.95;;;34.17;;
56860;SDS011;42744;51.094;3.490;2022-08-19T09:26:20;36.03;;;34.03;;
56860;SDS011;42744;51.094;3.490;2022-08-19T09:28:48;36.07;;;34.07;;
56860;SDS011;42744;51.094;3.490;2022-08-19T09:31:23;37.70;;;35.80;;
56860;SDS011;42744;51.094;3.490;2022-08-19T09:33:53;34.45;;;32.75;;
56860;SDS011;42744;51.094;3.490;2022-08-19T09:36:22;34.93;;;33.33;;
56860;SDS011;42744;51.094;3.490;2022-08-19T09:38:50;35.08;;;33.38;;
56860;SDS011;42744;51.094;3.490;2022-08-19T09:41:18;35.17;;;33.47;;
56860;SDS011;42744;51.094;3.490;2022-08-19T09:43:46;35.58;;;33.78;;
56860;SDS011;42744;51.094;3.490;2022-08-19T09:46:14;37.20;;;35.55;;
56860;SDS011;42744;51.094;3.490;2022-08-19T09:48:43;37.40;;;35.53;;
56860;SDS011;42744;51.094;3.490;2022-08-19T09:51:15;35.40;;;33.63;;
56860;SDS011;42744;51.094;3.490;2022-08-19T09:53:45;34.28;;;32.78;;
56860;SDS011;42744;51.094;3.490;2022-08-19T09:56:15;37.00;;;35.25;;
56860;SDS011;42744;51.094;3.490;2022-08-19T09:58:43;36.50;;;34.47;;
56860;SDS011;42744;51.094;3.490;2022-08-19T10:01:09;35.90;;;34.25;;
56860;SDS011;42744;51.094;3.490;2022-08-19T10:03:40;35.28;;;33.65;;
56860;SDS011;42744;51.094;3.490;2022-08-19T10:06:06;35.75;;;33.95;;
56860;SDS011;42744;51.094;3.490;2022-08-19T10:08:35;33.75;;;32.25;;
56860;SDS011;42744;51.094;3.490;2022-08-19T10:11:02;35.08;;;33.58;;
56860;SDS011;42744;51.094;3.490;2022-08-19T10:13:29;35.20;;;33.55;;
56860;SDS011;42744;51.094;3.490;2022-08-19T10:16:02;35.78;;;34.20;;
56860;SDS011;42744;51.094;3.490;2022-08-19T10:18:31;35.17;;;33.38;;
56860;SDS011;42744;51.094;3.490;2022-08-19T10:21:09;34.50;;;32.90;;
56860;SDS011;42744;51.094;3.490;2022-08-19T10:23:40;34.30;;;32.70;;
56860;SDS011;42744;51.094;3.490;2022-08-19T10:26:11;34.33;;;32.75;;
56860;SDS011;42744;51.094;3.490;2022-08-19T10:28:39;34.45;;;32.85;;
56860;SDS011;42744;51.094;3.490;2022-08-19T10:31:10;35.10;;;33.60;;
56860;SDS011;42744;51.094;3.490;2022-08-19T10:33:38;32.22;;;30.67;;
56860;SDS011;42744;51.094;3.490;2022-08-19T10:36:27;33.75;;;32.17;;
56860;SDS011;42744;51.094;3.490;2022-08-19T10:38:54;34.20;;;32.55;;
56860;SDS011;42744;51.094;3.490;2022-08-19T10:41:28;34.50;;;32.75;;
56860;SDS011;42744;51.094;3.490;2022-08-19T10:43:58;34.10;;;32.60;;
56860;SDS011;42744;51.094;3.490;2022-08-19T10:46:27;35.45;;;33.50;;
56860;SDS011;42744;51.094;3.490;2022-08-19T10:48:56;34.22;;;32.75;;
56860;SDS011;42744;51.094;3.490;2022-08-19T10:51:22;35.53;;;33.92;;
56860;SDS011;42744;51.094;3.490;2022-08-19T10:54:07;34.20;;;32.60;;
56860;SDS011;42744;51.094;3.490;2022-08-19T10:56:33;34.95;;;33.33;;
56860;SDS011;42744;51.094;3.490;2022-08-19T10:59:22;34.38;;;32.88;;
56860;SDS011;42744;51.094;3.490;2022-08-19T11:02:00;35.60;;;33.80;;
56860;SDS011;42744;51.094;3.490;2022-08-19T11:04:28;33.30;;;31.80;;
56860;SDS011;42744;51.094;3.490;2022-08-19T11:06:55;36.60;;;34.65;;
56860;SDS011;42744;51.094;3.490;2022-08-19T11:09:23;35.42;;;33.83;;
56860;SDS011;42744;51.094;3.490;2022-08-19T11:11:51;34.80;;;33.00;;
56860;SDS011;42744;51.094;3.490;2022-08-19T11:14:18;37.08;;;35.25;;
56860;SDS011;42744;51.094;3.490;2022-08-19T11:16:46;36.97;;;35.20;;
56860;SDS011;42744;51.094;3.490;2022-08-19T11:19:14;36.42;;;34.80;;
56860;SDS011;42744;51.094;3.490;2022-08-19T11:21:44;38.65;;;36.92;;
56860;SDS011;42744;51.094;3.490;2022-08-19T11:24:14;35.35;;;33.85;;
56860;SDS011;42744;51.094;3.490;2022-08-19T11:26:43;37.10;;;35.60;;
56860;SDS011;42744;51.094;3.490;2022-08-19T11:29:11;34.97;;;33.47;;
56860;SDS011;42744;51.094;3.490;2022-08-19T11:31:39;34.28;;;32.75;;
56860;SDS011;42744;51.094;3.490;2022-08-19T11:34:08;34.20;;;32.70;;
56860;SDS011;42744;51.094;3.490;2022-08-19T11:36:37;34.72;;;33.22;;
56860;SDS011;42744;51.094;3.490;2022-08-19T11:39:06;35.60;;;34.08;;
56860;SDS011;42744;51.094;3.490;2022-08-19T11:41:33;33.42;;;31.90;;
56860;SDS011;42744;51.094;3.490;2022-08-19T11:43:59;34.55;;;32.97;;
56860;SDS011;42744;51.094;3.490;2022-08-19T11:46:26;36.15;;;34.55;;
56860;SDS011;42744;51.094;3.490;2022-08-19T11:48:56;33.60;;;32.10;;
56860;SDS011;42744;51.094;3.490;2022-08-19T11:51:24;35.25;;;33.55;;
56860;SDS011;42744;51.094;3.490;2022-08-19T11:53:54;34.45;;;32.83;;
56860;SDS011;42744;51.094;3.490;2022-08-19T11:56:22;33.25;;;31.85;;
56860;SDS011;42744;51.094;3.490;2022-08-19T11:58:49;32.15;;;30.88;;
56860;SDS011;42744;51.094;3.490;2022-08-19T12:01:16;34.67;;;33.28;;
56860;SDS011;42744;51.094;3.490;2022-08-19T12:03:44;34.88;;;33.38;;
56860;SDS011;42744;51.094;3.490;2022-08-19T12:06:13;34.55;;;33.10;;
56860;SDS011;42744;51.094;3.490;2022-08-19T12:08:45;35.40;;;33.80;;
56860;SDS011;42744;51.094;3.490;2022-08-19T12:11:12;34.90;;;33.40;;
56860;SDS011;42744;51.094;3.490;2022-08-19T12:13:39;34.10;;;32.63;;
56860;SDS011;42744;51.094;3.490;2022-08-19T12:16:11;34.33;;;32.83;;
56860;SDS011;42744;51.094;3.490;2022-08-19T12:18:40;34.13;;;32.72;;
56860;SDS011;42744;51.094;3.490;2022-08-19T12:21:09;34.85;;;33.17;;
56860;SDS011;42744;51.094;3.490;2022-08-19T12:23:36;35.45;;;33.45;;
56860;SDS011;42744;51.094;3.490;2022-08-19T12:26:03;35.88;;;34.33;;
56860;SDS011;42744;51.094;3.490;2022-08-19T12:28:30;35.47;;;33.42;;
56860;SDS011;42744;51.094;3.490;2022-08-19T12:30:56;33.28;;;31.77;;
56860;SDS011;42744;51.094;3.490;2022-08-19T12:33:22;35.72;;;34.13;;
56860;SDS011;42744;51.094;3.490;2022-08-19T12:35:51;35.30;;;33.60;;
56860;SDS011;42744;51.094;3.490;2022-08-19T12:38:18;35.83;;;34.13;;
56860;SDS011;42744;51.094;3.490;2022-08-19T12:40:47;33.25;;;31.75;;
56860;SDS011;42744;51.094;3.490;2022-08-19T12:43:16;34.08;;;32.63;;
56860;SDS011;42744;51.094;3.490;2022-08-19T12:45:41;38.70;;;36.30;;
56860;SDS011;42744;51.094;3.490;2022-08-19T12:48:08;37.95;;;35.90;;
56860;SDS011;42744;51.094;3.490;2022-08-19T12:50:35;37.83;;;35.83;;
56860;SDS011;42744;51.094;3.490;2022-08-19T12:53:01;36.65;;;34.55;;
56860;SDS011;42744;51.094;3.490;2022-08-19T12:55:27;38.22;;;35.53;;
56860;SDS011;42744;51.094;3.490;2022-08-19T12:57:54;36.75;;;34.42;;
56860;SDS011;42744;51.094;3.490;2022-08-19T13:00:21;39.28;;;36.92;;
56860;SDS011;42744;51.094;3.490;2022-08-19T13:02:48;36.80;;;35.00;;
56860;SDS011;42744;51.094;3.490;2022-08-19T13:05:17;38.30;;;36.55;;
56860;SDS011;42744;51.094;3.490;2022-08-19T13:07:49;40.22;;;38.40;;
56860;SDS011;42744;51.094;3.490;2022-08-19T13:10:18;38.88;;;36.92;;
56860;SDS011;42744;51.094;3.490;2022-08-19T13:12:46;36.75;;;34.88;;
56860;SDS011;42744;51.094;3.490;2022-08-19T13:15:14;36.17;;;34.42;;
56860;SDS011;42744;51.094;3.490;2022-08-19T13:17:45;35.92;;;34.10;;
56860;SDS011;42744;51.094;3.490;2022-08-19T13:20:13;38.70;;;36.95;;
56860;SDS011;42744;51.094;3.490;2022-08-19T13:22:39;38.45;;;36.70;;
56860;SDS011;42744;51.094;3.490;2022-08-19T13:25:05;37.97;;;36.17;;
56860;SDS011;42744;51.094;3.490;2022-08-19T13:27:32;38.80;;;36.90;;
56860;SDS011;42744;51.094;3.490;2022-08-19T13:29:58;39.80;;;38.10;;
56860;SDS011;42744;51.094;3.490;2022-08-19T13:32:43;39.10;;;37.30;;
56860;SDS011;42744;51.094;3.490;2022-08-19T13:35:28;40.15;;;37.88;;
56860;SDS011;42744;51.094;3.490;2022-08-19T13:37:54;37.72;;;35.92;;
56860;SDS011;42744;51.094;3.490;2022-08-19T13:40:23;39.10;;;37.08;;
56860;SDS011;42744;51.094;3.490;2022-08-19T13:42:52;37.83;;;36.03;;
56860;SDS011;42744;51.094;3.490;2022-08-19T13:45:21;38.80;;;36.85;;
56860;SDS011;42744;51.094;3.490;2022-08-19T13:47:50;39.35;;;37.30;;
56860;SDS011;42744;51.094;3.490;2022-08-19T13:50:23;38.60;;;36.65;;
56860;SDS011;42744;51.094;3.490;2022-08-19T13:52:52;39.38;;;37.47;;
56860;SDS011;42744;51.094;3.490;2022-08-19T13:55:19;40.95;;;38.78;;
56860;SDS011;42744;51.094;3.490;2022-08-19T13:57:45;41.58;;;39.55;;
56860;SDS011;42744;51.094;3.490;2022-08-19T14:00:13;41.63;;;39.33;;
56860;SDS011;42744;51.094;3.490;2022-08-19T14:02:44;43.33;;;41.03;;
56860;SDS011;42744;51.094;3.490;2022-08-19T14:05:12;41.47;;;39.25;;
56860;SDS011;42744;51.094;3.490;2022-08-19T14:07:41;43.25;;;41.05;;
56860;SDS011;42744;51.094;3.490;2022-08-19T14:10:09;43.90;;;41.20;;
56860;SDS011;42744;51.094;3.490;2022-08-19T14:12:36;42.92;;;40.60;;
56860;SDS011;42744;51.094;3.490;2022-08-19T14:15:03;41.45;;;39.45;;
56860;SDS011;42744;51.094;3.490;2022-08-19T14:17:31;40.63;;;38.63;;
56860;SDS011;42744;51.094;3.490;2022-08-19T14:20:00;41.10;;;38.85;;
56860;SDS011;42744;51.094;3.490;2022-08-19T14:22:33;41.03;;;39.00;;
56860;SDS011;42744;51.094;3.490;2022-08-19T14:25:07;41.17;;;38.72;;
56860;SDS011;42744;51.094;3.490;2022-08-19T14:27:35;36.92;;;34.92;;
56860;SDS011;42744;51.094;3.490;2022-08-19T14:30:02;39.80;;;37.70;;
56860;SDS011;42744;51.094;3.490;2022-08-19T14:32:29;40.12;;;38.03;;
56860;SDS011;42744;51.094;3.490;2022-08-19T14:34:56;39.42;;;37.25;;
56860;SDS011;42744;51.094;3.490;2022-08-19T14:37:22;43.45;;;40.78;;
56860;SDS011;42744;51.094;3.490;2022-08-19T14:39:48;41.83;;;39.25;;
56860;SDS011;42744;51.094;3.490;2022-08-19T14:42:14;43.83;;;41.58;;
56860;SDS011;42744;51.094;3.490;2022-08-19T14:44:40;41.88;;;39.65;;
56860;SDS011;42744;51.094;3.490;2022-08-19T14:47:07;40.42;;;38.25;;
56860;SDS011;42744;51.094;3.490;2022-08-19T14:49:34;41.67;;;39.28;;